createdAt,value
2019-01-18T00:01:47.271Z,99204.79
2019-01-18T00:04:13.198Z,99201.27
2019-01-18T00:06:39.297Z,99199.90
2019-01-18T00:09:05.478Z,99209.81
2019-01-18T00:11:31.490Z,99203.61
2019-01-18T00:13:57.456Z,99200.98
2019-01-18T00:16:23.436Z,99208.23
2019-01-18T00:18:49.551Z,99204.86
2019-01-18T00:21:16.011Z,99212.44
2019-01-18T00:23:41.977Z,99211.84
2019-01-18T00:26:07.861Z,99207.61
2019-01-18T00:28:33.764Z,99205.87
2019-01-18T00:30:59.685Z,99206.48
2019-01-18T00:33:25.676Z,99204.71
2019-01-18T00:35:51.591Z,99207.91
2019-01-18T00:38:17.568Z,99201.56
2019-01-18T00:40:43.513Z,99210.69
2019-01-18T00:43:09.545Z,99207.41
2019-01-18T00:45:35.447Z,99209.91
2019-01-18T00:48:01.401Z,99207.94
2019-01-18T00:50:27.266Z,99208.23
2019-01-18T00:52:53.146Z,99210.41
2019-01-18T00:55:19.031Z,99217.09
2019-01-18T00:57:45.021Z,99217.59
2019-01-18T01:00:16.966Z,99220.01
2019-01-18T01:02:42.852Z,99213.19
2019-01-18T01:05:08.755Z,99220.98
2019-01-18T01:07:34.629Z,99213.03
2019-01-18T01:10:00.496Z,99218.32
2019-01-18T01:12:26.367Z,99212.30
2019-01-18T01:14:52.226Z,99209.37
2019-01-18T01:17:18.093Z,99216.61
2019-01-18T01:19:44.198Z,99212.73
2019-01-18T01:22:11.590Z,99213.86
2019-01-18T01:24:37.462Z,99213.77
2019-01-18T01:27:03.338Z,99218.95
2019-01-18T01:29:29.222Z,99215.89
2019-01-18T01:31:55.211Z,99215.01
2019-01-18T01:34:21.069Z,99210.15
2019-01-18T01:36:46.959Z,99214.34
2019-01-18T01:39:12.839Z,99206.70
2019-01-18T01:41:38.695Z,99204.56
2019-01-18T01:44:04.582Z,99191.76
2019-01-18T01:46:30.563Z,99189.81
2019-01-18T01:48:56.434Z,99187.09
2019-01-18T01:51:22.326Z,99179.21
2019-01-18T01:53:48.322Z,99171.89
2019-01-18T01:56:14.293Z,99175.11
2019-01-18T01:58:40.170Z,99171.23
2019-01-18T02:01:06.069Z,99173.47
2019-01-18T02:03:31.941Z,99172.45
2019-01-18T02:05:57.815Z,99167.38
2019-01-18T02:08:23.687Z,99165.31
2019-01-18T02:10:49.591Z,99166.56
2019-01-18T02:13:15.467Z,99167.28
2019-01-18T02:15:41.336Z,99157.33
2019-01-18T02:18:07.242Z,99158.25
2019-01-18T02:20:33.226Z,99145.33
2019-01-18T02:22:59.665Z,99143.22
2019-01-18T02:25:25.531Z,99139.68
2019-01-18T02:27:51.516Z,99139.05
2019-01-18T02:30:24.215Z,99142.40
2019-01-18T02:32:50.078Z,99140.70
2019-01-18T02:35:16.012Z,99139.75
2019-01-18T02:37:41.872Z,99144.73
2019-01-18T02:40:09.839Z,99139.42
2019-01-18T02:42:35.735Z,99138.23
2019-01-18T02:45:02.710Z,99145.06
2019-01-18T02:47:28.713Z,99140.20
2019-01-18T02:49:54.640Z,99144.70
2019-01-18T02:52:20.522Z,99138.99
2019-01-18T02:54:46.444Z,99146.61
2019-01-18T02:57:12.257Z,99138.70
2019-01-18T02:59:38.134Z,99140.44
2019-01-18T03:02:04.084Z,99141.13
2019-01-18T03:04:29.976Z,99148.13
2019-01-18T03:06:55.834Z,99158.33
2019-01-18T03:09:21.729Z,99159.24
2019-01-18T03:11:47.719Z,99144.73
2019-01-18T03:14:13.594Z,99147.59
2019-01-18T03:16:39.480Z,99143.55
2019-01-18T03:19:05.396Z,99141.16
2019-01-18T03:21:31.581Z,99141.28
2019-01-18T03:23:57.841Z,99141.77
2019-01-18T03:26:23.781Z,99138.78
2019-01-18T03:28:49.734Z,99136.22
2019-01-18T03:31:15.723Z,99143.70
2019-01-18T03:33:41.600Z,99145.86
2019-01-18T03:36:07.487Z,99151.30
2019-01-18T03:38:33.359Z,99145.04
2019-01-18T03:40:59.231Z,99166.63
2019-01-18T03:43:25.132Z,99158.80
2019-01-18T03:45:51.022Z,99158.70
2019-01-18T03:48:16.866Z,99162.47
2019-01-18T03:50:42.748Z,99170.84
2019-01-18T03:53:08.618Z,99166.03
2019-01-18T03:55:34.598Z,99172.87
2019-01-18T03:58:00.495Z,99167.83
2019-01-18T04:00:27.271Z,99167.91
2019-01-18T04:02:53.268Z,99162.23
2019-01-18T04:05:19.178Z,99164.64
2019-01-18T04:07:45.085Z,99157.22
2019-01-18T04:10:16.587Z,99161.59
2019-01-18T04:12:42.472Z,99163.52
2019-01-18T04:15:11.120Z,99159.92
2019-01-18T04:17:37.018Z,99152.91
2019-01-18T04:20:06.443Z,99155.34
2019-01-18T04:22:32.822Z,99152.84
2019-01-18T04:24:59.056Z,99145.79
2019-01-18T04:27:25.042Z,99148.11
2019-01-18T04:29:50.914Z,99141.94
2019-01-18T04:32:16.791Z,99143.02
2019-01-18T04:34:42.794Z,99140.09
2019-01-18T04:37:08.642Z,99138.52
2019-01-18T04:39:34.620Z,99139.02
2019-01-18T04:42:00.482Z,99150.25
2019-01-18T04:44:26.359Z,99147.81
2019-01-18T04:46:52.238Z,99152.64
2019-01-18T04:49:18.127Z,99145.64
2019-01-18T04:51:43.979Z,99145.65
2019-01-18T04:54:09.881Z,99147.23
2019-01-18T04:56:35.791Z,99145.08
2019-01-18T04:59:01.675Z,99151.52
2019-01-18T05:01:27.538Z,99147.04
2019-01-18T05:03:53.418Z,99147.23
2019-01-18T05:06:19.282Z,99145.13
2019-01-18T05:08:45.148Z,99147.51
2019-01-18T05:11:11.079Z,99146.81
2019-01-18T05:13:36.953Z,99147.39
2019-01-18T05:16:04.728Z,99152.67
2019-01-18T05:18:30.612Z,99153.27
2019-01-18T05:20:56.515Z,99159.35
2019-01-18T05:23:22.732Z,99160.23
2019-01-18T05:25:48.857Z,99157.43
2019-01-18T05:28:14.714Z,99158.69
2019-01-18T05:30:47.295Z,99154.89
2019-01-18T05:33:08.362Z,99157.67
2019-01-18T05:35:34.236Z,99160.41
2019-01-18T05:38:00.198Z,99162.62
2019-01-18T05:40:26.056Z,99164.91
2019-01-18T05:42:51.943Z,99156.23
2019-01-18T05:45:19.621Z,99162.45
2019-01-18T05:47:45.613Z,99164.03
2019-01-18T05:50:19.254Z,99160.90
2019-01-18T05:52:45.216Z,99162.95
2019-01-18T05:55:11.322Z,99161.58
2019-01-18T05:57:37.213Z,99174.40
2019-01-18T06:00:06.997Z,99173.88
2019-01-18T06:02:32.872Z,99180.21
2019-01-18T06:04:59.458Z,99178.63
2019-01-18T06:07:25.339Z,99183.97
2019-01-18T06:09:51.224Z,99183.88
2019-01-18T06:12:17.111Z,99188.79
2019-01-18T06:14:42.968Z,99188.10
2019-01-18T06:17:09.048Z,99191.16
2019-01-18T06:19:34.925Z,99185.59
2019-01-18T06:22:00.923Z,99193.21
2019-01-18T06:24:26.928Z,99194.02
2019-01-18T06:26:53.315Z,99181.48
2019-01-18T06:29:19.217Z,99199.31
2019-01-18T06:31:45.116Z,99199.31
2019-01-18T06:34:11.001Z,99200.29
2019-01-18T06:36:36.888Z,99203.46
2019-01-18T06:39:04.782Z,99198.23
2019-01-18T06:41:32.162Z,99204.05
2019-01-18T06:43:58.075Z,99198.17
2019-01-18T06:46:24.349Z,99201.94
2019-01-18T06:48:50.819Z,99200.88
2019-01-18T06:51:16.734Z,99206.41
2019-01-18T06:53:42.633Z,99209.34
2019-01-18T06:56:08.494Z,99210.55
2019-01-18T06:58:34.442Z,99216.80
2019-01-18T07:01:00.323Z,99225.24
2019-01-18T07:03:26.246Z,99229.31
2019-01-18T07:05:52.115Z,99229.05
2019-01-18T07:08:18.009Z,99238.49
2019-01-18T07:10:43.877Z,99244.55
2019-01-18T07:13:09.835Z,99254.60
2019-01-18T07:15:35.744Z,99250.83
2019-01-18T07:18:01.634Z,99256.38
2019-01-18T07:20:27.524Z,99257.72
2019-01-18T07:22:53.408Z,99265.67
2019-01-18T07:25:25.228Z,99270.44
2019-01-18T07:27:52.186Z,99281.65
2019-01-18T07:30:21.858Z,99279.83
2019-01-18T07:32:47.732Z,99284.55
2019-01-18T07:35:13.626Z,99287.16
2019-01-18T07:37:39.502Z,99282.75
2019-01-18T07:40:07.387Z,99285.64
2019-01-18T07:42:33.646Z,99285.39
2019-01-18T07:44:59.537Z,99297.29
2019-01-18T07:47:25.747Z,99296.41
2019-01-18T07:49:51.627Z,99306.98
2019-01-18T07:52:17.511Z,99308.91
2019-01-18T07:54:43.407Z,99316.08
2019-01-18T07:57:09.295Z,99326.25
2019-01-18T07:59:35.210Z,99319.48
2019-01-18T08:02:01.124Z,99323.19
2019-01-18T08:04:26.973Z,99323.85
2019-01-18T08:06:52.885Z,99331.32
2019-01-18T08:09:18.768Z,99328.16
2019-01-18T08:11:44.733Z,99334.88
2019-01-18T08:14:10.622Z,99336.67
2019-01-18T08:16:36.481Z,99343.56
2019-01-18T08:19:02.373Z,99348.62
2019-01-18T08:21:28.268Z,99340.64
2019-01-18T08:23:54.230Z,99341.07
2019-01-18T08:26:20.538Z,99345.44
2019-01-18T08:28:48.553Z,99358.44
2019-01-18T08:31:14.606Z,99356.80
2019-01-18T08:33:41.772Z,99366.66
2019-01-18T08:36:07.661Z,99371.45
2019-01-18T08:38:33.577Z,99370.27
2019-01-18T08:40:59.449Z,99366.39
2019-01-18T08:43:25.439Z,99364.02
2019-01-18T08:45:51.343Z,99366.21
2019-01-18T08:48:17.214Z,99368.42
2019-01-18T08:50:43.099Z,99368.73
2019-01-18T08:53:09.073Z,99366.53
2019-01-18T08:55:34.977Z,99368.41
2019-01-18T08:58:00.870Z,99381.58
2019-01-18T09:00:31.003Z,99384.89
2019-01-18T09:02:56.971Z,99387.33
2019-01-18T09:05:24.792Z,99390.61
2019-01-18T09:07:50.683Z,99401.75
2019-01-18T09:10:19.573Z,99397.23
2019-01-18T09:12:45.539Z,99400.26
2019-01-18T09:15:12.413Z,99403.15
2019-01-18T09:17:39.815Z,99406.25
2019-01-18T09:20:15.502Z,99408.27
2019-01-18T09:22:41.379Z,99415.91
2019-01-18T09:25:07.252Z,99413.63
2019-01-18T09:27:33.602Z,99416.31
2019-01-18T09:30:00.472Z,99414.63
2019-01-18T09:32:26.315Z,99413.56
2019-01-18T09:34:52.348Z,99420.80
2019-01-18T09:37:18.215Z,99419.97
2019-01-18T09:39:45.439Z,99428.84
2019-01-18T09:42:11.523Z,99435.17
2019-01-18T09:44:37.410Z,99432.48
2019-01-18T09:47:03.248Z,99429.47
2019-01-18T09:49:29.286Z,99429.22
2019-01-18T09:51:55.227Z,99432.64
2019-01-18T09:54:21.188Z,99431.63
2019-01-18T09:56:47.074Z,99434.11
2019-01-18T09:59:12.940Z,99430.20
2019-01-18T10:01:38.809Z,99429.70
2019-01-18T10:04:04.715Z,99435.27
2019-01-18T10:06:30.595Z,99431.84
2019-01-18T10:08:56.456Z,99432.96
2019-01-18T10:11:22.384Z,99425.33
2019-01-18T10:13:48.290Z,99434.88
2019-01-18T10:16:14.278Z,99431.67
2019-01-18T10:18:40.152Z,99437.24
2019-01-18T10:21:06.023Z,99438.84
2019-01-18T10:23:31.999Z,99445.22
2019-01-18T10:25:57.949Z,99443.25
2019-01-18T10:28:24.510Z,99438.95
2019-01-18T10:30:51.672Z,99445.96
2019-01-18T10:33:17.533Z,99445.07
2019-01-18T10:35:43.779Z,99446.22
2019-01-18T10:38:09.647Z,99447.44
2019-01-18T10:40:35.640Z,99447.11
2019-01-18T10:43:01.579Z,99455.13
2019-01-18T10:45:27.443Z,99448.09
2019-01-18T10:47:53.292Z,99446.05
2019-01-18T10:50:22.525Z,99449.83
2019-01-18T10:52:48.370Z,99454.05
2019-01-18T10:55:14.358Z,99459.67
2019-01-18T10:57:40.326Z,99462.67
2019-01-18T11:00:12.767Z,99458.63
2019-01-18T11:02:38.612Z,99458.92
2019-01-18T11:05:07.498Z,99456.56
2019-01-18T11:07:33.397Z,99465.92
2019-01-18T11:09:59.264Z,99462.59
2019-01-18T11:12:25.173Z,99460.63
2019-01-18T11:14:51.048Z,99460.80
2019-01-18T11:17:16.955Z,99458.55
2019-01-18T11:19:42.860Z,99452.34
2019-01-18T11:22:08.756Z,99452.23
2019-01-18T11:24:34.733Z,99453.52
2019-01-18T11:27:00.612Z,99448.88
2019-01-18T11:29:27.051Z,99452.02
2019-01-18T11:31:54.053Z,99446.38
2019-01-18T11:34:20.057Z,99445.13
2019-01-18T11:36:46.017Z,99445.04
2019-01-18T11:39:11.933Z,99446.41
2019-01-18T11:41:37.825Z,99447.34
2019-01-18T11:44:04.308Z,99444.84
2019-01-18T11:46:30.203Z,99445.52
2019-01-18T11:48:56.178Z,99451.95
2019-01-18T11:51:22.084Z,99446.45
2019-01-18T11:53:47.959Z,99444.27
2019-01-18T11:56:13.829Z,99448.08
2019-01-18T11:58:39.738Z,99447.46
2019-01-18T12:01:05.679Z,99448.95
2019-01-18T12:03:31.482Z,99448.82
2019-01-18T12:05:57.377Z,99436.92
2019-01-18T12:08:23.264Z,99449.22
2019-01-18T12:10:49.145Z,99443.10
2019-01-18T12:13:14.997Z,99443.59
2019-01-18T12:15:40.883Z,99440.88
2019-01-18T12:18:06.799Z,99442.75
2019-01-18T12:20:33.364Z,99437.03
2019-01-18T12:22:59.342Z,99439.38
2019-01-18T12:25:25.225Z,99439.23
2019-01-18T12:27:51.086Z,99435.41
2019-01-18T12:30:27.484Z,99443.08
2019-01-18T12:32:55.050Z,99438.61
2019-01-18T12:35:20.948Z,99446.63
2019-01-18T12:37:46.798Z,99448.70
2019-01-18T12:40:12.792Z,99450.41
2019-01-18T12:42:58.522Z,99458.55
2019-01-18T12:45:24.393Z,99451.44
2019-01-18T12:47:50.254Z,99457.47
2019-01-18T12:50:25.705Z,99456.30
2019-01-18T12:52:51.577Z,99456.09
2019-01-18T12:55:17.457Z,99467.33
2019-01-18T12:57:43.395Z,99475.92
2019-01-18T13:00:18.619Z,99499.27
2019-01-18T13:02:44.485Z,99520.41
2019-01-18T13:05:15.778Z,99500.59
2019-01-18T13:07:41.857Z,99501.24
2019-01-18T13:10:12.286Z,99495.32
2019-01-18T13:12:36.104Z,99495.04
2019-01-18T13:15:08.263Z,99497.91
2019-01-18T13:17:34.192Z,99494.84
2019-01-18T13:20:00.095Z,99488.91
2019-01-18T13:22:26.277Z,99498.14
2019-01-18T13:24:52.154Z,99495.91
2019-01-18T13:27:18.000Z,99498.73
2019-01-18T13:29:43.851Z,99498.87
2019-01-18T13:32:09.842Z,99505.63
2019-01-18T13:34:36.631Z,99506.28
2019-01-18T13:37:02.704Z,99513.72
2019-01-18T13:39:28.596Z,99506.88
2019-01-18T13:41:54.484Z,99505.22
2019-01-18T13:44:21.340Z,99504.33
2019-01-18T13:46:47.229Z,99509.49
2019-01-18T13:49:13.188Z,99515.67
2019-01-18T13:51:39.111Z,99519.14
2019-01-18T13:54:04.997Z,99515.17
2019-01-18T13:56:30.862Z,99522.32
2019-01-18T13:58:56.765Z,99517.86
2019-01-18T14:01:22.613Z,99519.67
2019-01-18T14:03:48.472Z,99522.15
2019-01-18T14:06:14.361Z,99525.81
2019-01-18T14:08:42.231Z,99528.50
2019-01-18T14:11:08.060Z,99533.68
2019-01-18T14:13:37.416Z,99528.41
2019-01-18T14:16:01.712Z,99539.30
2019-01-18T14:18:27.586Z,99526.75
2019-01-18T14:20:53.500Z,99545.27
2019-01-18T14:23:19.344Z,99551.16
2019-01-18T14:25:45.207Z,99556.13
2019-01-18T14:28:11.259Z,99562.45
2019-01-18T14:30:37.149Z,99559.26
2019-01-18T14:33:03.150Z,99568.26
2019-01-18T14:35:29.933Z,99574.87
2019-01-18T14:37:55.839Z,99577.55
2019-01-18T14:40:21.699Z,99585.16
2019-01-18T14:42:49.870Z,99599.70
2019-01-18T14:45:19.436Z,99600.56
2019-01-18T14:47:45.410Z,99602.77
2019-01-18T14:50:15.169Z,99604.44
2019-01-18T14:52:41.086Z,99606.11
2019-01-18T14:55:06.973Z,99604.75
2019-01-18T14:57:32.831Z,99612.31
2019-01-18T14:59:58.754Z,99613.48
2019-01-18T15:02:24.598Z,99615.12
2019-01-18T15:04:50.468Z,99616.12
2019-01-18T15:07:16.323Z,99632.36
2019-01-18T15:09:42.204Z,99631.02
2019-01-18T15:12:08.088Z,99625.13
2019-01-18T15:14:33.972Z,99637.47
2019-01-18T15:16:59.873Z,99636.20
2019-01-18T15:19:25.733Z,99635.39
2019-01-18T15:21:51.607Z,99634.82
2019-01-18T15:24:17.487Z,99641.23
2019-01-18T15:26:43.372Z,99647.25
2019-01-18T15:29:09.239Z,99650.99
2019-01-18T15:31:35.121Z,99647.14
2019-01-18T15:34:01.092Z,99649.59
2019-01-18T15:36:27.382Z,99650.41
2019-01-18T15:38:53.239Z,99663.55
2019-01-18T15:41:19.148Z,99666.45
2019-01-18T15:43:45.217Z,99671.11
2019-01-18T15:46:11.088Z,99673.81
2019-01-18T15:48:37.428Z,99680.15
2019-01-18T15:51:03.287Z,99685.60
2019-01-18T15:53:29.187Z,99689.03
2019-01-18T15:55:55.067Z,99689.13
2019-01-18T15:58:20.943Z,99700.60
2019-01-18T16:00:46.842Z,99703.87
2019-01-18T16:03:16.015Z,99700.23
2019-01-18T16:05:40.494Z,99702.61
2019-01-18T16:08:06.465Z,99705.30
2019-01-18T16:10:32.952Z,99706.04
2019-01-18T16:12:58.865Z,99705.98
2019-01-18T16:15:31.740Z,99714.42
2019-01-18T16:17:57.583Z,99708.50
2019-01-18T16:20:23.856Z,99713.70
2019-01-18T16:22:49.847Z,99715.69
2019-01-18T16:25:21.565Z,99699.02
2019-01-18T16:27:47.590Z,99712.73
2019-01-18T16:30:15.902Z,99707.88
2019-01-18T16:32:41.750Z,99703.47
2019-01-18T16:35:10.481Z,99705.25
2019-01-18T16:37:37.225Z,99707.25
2019-01-18T16:40:06.898Z,99699.79
2019-01-18T16:42:33.240Z,99700.05
2019-01-18T16:44:59.124Z,99701.34
2019-01-18T16:47:25.014Z,99701.84
2019-01-18T16:49:50.872Z,99709.38
2019-01-18T16:52:16.767Z,99706.22
2019-01-18T16:54:42.609Z,99711.92
2019-01-18T16:57:08.496Z,99718.58
2019-01-18T16:59:34.795Z,99715.04
2019-01-18T17:02:00.682Z,99716.30
2019-01-18T17:04:26.545Z,99720.90
2019-01-18T17:06:52.425Z,99723.46
2019-01-18T17:09:18.292Z,99727.69
2019-01-18T17:11:44.179Z,99723.20
2019-01-18T17:14:10.135Z,99730.61
2019-01-18T17:16:36.031Z,99727.34
2019-01-18T17:19:01.926Z,99732.45
2019-01-18T17:21:27.807Z,99729.71
2019-01-18T17:23:53.663Z,99734.25
2019-01-18T17:26:19.536Z,99740.69
2019-01-18T17:28:45.403Z,99739.89
2019-01-18T17:31:11.292Z,99746.48
2019-01-18T17:33:38.560Z,99746.84
2019-01-18T17:36:16.557Z,99753.89
2019-01-18T17:38:47.491Z,99754.44
2019-01-18T17:41:41.470Z,99757.43
2019-01-18T17:44:31.269Z,99765.09
2019-01-18T17:47:34.521Z,99767.83
2019-01-18T17:50:30.357Z,99764.16
2019-01-18T17:53:30.678Z,99766.53
2019-01-18T17:56:03.220Z,99769.63
2019-01-18T17:58:53.959Z,99773.09
2019-01-18T18:01:23.665Z,99768.49
2019-01-18T18:03:59.160Z,99774.87
2019-01-18T18:06:45.582Z,99777.32
2019-01-18T18:09:18.256Z,99779.62
2019-01-18T18:12:02.872Z,99775.97
2019-01-18T18:14:42.261Z,99782.64
2019-01-18T18:17:14.714Z,99778.73
2019-01-18T18:19:53.207Z,99784.57
2019-01-18T18:22:34.637Z,99787.42
2019-01-18T18:25:39.558Z,99789.52
2019-01-18T18:28:44.220Z,99791.98
2019-01-18T18:31:16.894Z,99794.66
2019-01-18T18:34:12.568Z,99788.76
2019-01-18T18:36:55.116Z,99788.40
2019-01-18T18:39:28.535Z,99788.52
2019-01-18T18:42:14.742Z,99794.43
2019-01-18T18:44:44.418Z,99790.14
2019-01-18T18:47:17.046Z,99794.49
2019-01-18T18:49:52.950Z,99794.20
2019-01-18T18:52:29.527Z,99801.28
2019-01-18T18:55:14.427Z,99804.42
2019-01-18T18:58:04.791Z,99793.06
2019-01-18T19:00:49.934Z,99800.87
2019-01-18T19:03:19.611Z,99815.36
2019-01-18T19:06:10.228Z,99823.25
2019-01-18T19:08:57.556Z,99823.25
2019-01-18T19:11:33.195Z,99830.28
2019-01-18T19:14:14.996Z,99823.17
2019-01-18T19:17:08.408Z,99823.53
2019-01-18T19:20:05.743Z,99824.22
2019-01-18T19:22:59.225Z,99824.22
2019-01-18T19:25:34.846Z,99827.45
2019-01-18T19:28:22.924Z,99823.03
2019-01-18T19:31:01.701Z,99817.34
2019-01-18T19:33:34.424Z,99823.41
2019-01-18T19:36:13.272Z,99823.95
2019-01-18T19:38:58.413Z,99817.81
2019-01-18T19:41:34.760Z,99826.72
2019-01-18T19:44:04.451Z,99820.18
2019-01-18T19:46:49.206Z,99821.93
2019-01-18T19:49:38.900Z,99826.47
2019-01-18T19:52:09.469Z,99834.78
2019-01-18T19:54:51.436Z,99831.34
2019-01-18T19:57:36.297Z,99835.83
2019-01-18T20:00:22.887Z,99838.55
2019-01-18T20:02:55.295Z,99842.11
2019-01-18T20:05:37.214Z,99837.62
2019-01-18T20:08:15.784Z,99843.63
2019-01-18T20:10:57.741Z,99846.22
2019-01-18T20:13:36.013Z,99851.01
2019-01-18T20:16:25.423Z,99849.25
2019-01-18T20:19:13.626Z,99851.48
2019-01-18T20:21:52.484Z,99847.19
2019-01-18T20:24:40.583Z,99850.28
2019-01-18T20:27:25.678Z,99862.63
2019-01-18T20:30:04.187Z,99852.14
2019-01-18T20:32:51.553Z,99860.09
2019-01-18T20:35:33.431Z,99858.78
2019-01-18T20:38:23.646Z,99868.91
2019-01-18T20:40:54.295Z,99868.91
2019-01-18T20:43:27.848Z,99859.25
2019-01-18T20:46:26.423Z,99860.56
2019-01-18T20:49:15.992Z,99853.63
2019-01-18T20:51:45.689Z,99858.03
2019-01-18T20:54:32.211Z,99855.73
2019-01-18T20:57:01.901Z,99859.25
2019-01-18T20:59:37.571Z,99859.25
2019-01-18T21:02:13.435Z,99861.40
2019-01-18T21:04:55.203Z,99854.80
2019-01-18T21:07:41.762Z,99858.44
2019-01-18T21:10:26.006Z,99858.09
2019-01-18T21:13:16.336Z,99862.91
2019-01-18T21:16:07.179Z,99862.53
2019-01-18T21:18:51.920Z,99866.99
2019-01-18T21:21:43.960Z,99866.66
2019-01-18T21:24:28.811Z,99870.60
2019-01-18T21:26:58.630Z,99869.36
2019-01-18T21:29:34.545Z,99873.80
2019-01-18T21:32:19.616Z,99875.11
2019-01-18T21:34:49.326Z,99876.83
2019-01-18T21:37:35.578Z,99876.42
2019-01-18T21:40:23.774Z,99882.06
2019-01-18T21:43:16.583Z,99883.44
2019-01-18T21:45:55.958Z,99888.67
2019-01-18T21:48:28.146Z,99886.04
2019-01-18T21:51:02.380Z,99883.84
2019-01-18T21:53:41.324Z,99894.70
2019-01-18T21:56:35.672Z,99887.23
2019-01-18T21:59:25.009Z,99889.88
2019-01-18T22:02:00.749Z,99888.16
2019-01-18T22:04:31.071Z,99898.64
2019-01-18T22:07:06.746Z,99898.19
2019-01-18T22:09:39.661Z,99906.09
2019-01-18T22:12:15.362Z,99908.72
2019-01-18T22:15:10.983Z,99908.73
2019-01-18T22:17:47.006Z,99916.08
2019-01-18T22:20:34.440Z,99918.28
2019-01-18T22:23:13.323Z,99923.52
2019-01-18T22:25:45.831Z,99926.49
2019-01-18T22:28:43.225Z,99931.34
2019-01-18T22:31:31.305Z,99933.91
2019-01-18T22:34:04.078Z,99934.81
2019-01-18T22:36:42.835Z,99936.98
2019-01-18T22:39:33.299Z,99939.64
2019-01-18T22:42:19.332Z,99939.25
2019-01-18T22:44:49.689Z,99939.72
2019-01-18T22:47:25.707Z,99935.84
2019-01-18T22:49:55.409Z,99933.22
2019-01-18T22:52:31.226Z,99938.41
2019-01-18T22:55:17.156Z,99936.69
2019-01-18T22:57:46.891Z,99932.30
2019-01-18T23:00:55.477Z,99932.76
2019-01-18T23:03:27.886Z,99932.70
2019-01-18T23:06:14.509Z,99931.44
2019-01-18T23:09:08.499Z,99935.37
2019-01-18T23:11:47.295Z,99937.09
2019-01-18T23:14:33.590Z,99938.45
2019-01-18T23:17:15.768Z,99938.05
2019-01-18T23:19:48.233Z,99937.15
2019-01-18T23:22:26.598Z,99937.09
2019-01-18T23:24:59.005Z,99936.18
2019-01-18T23:27:31.318Z,99939.60
2019-01-18T23:30:10.004Z,99942.73
2019-01-18T23:33:15.879Z,99940.52
2019-01-18T23:35:51.060Z,99943.18
2019-01-18T23:38:52.377Z,99932.19
2019-01-18T23:41:27.836Z,99939.59
2019-01-18T23:44:00.321Z,99935.61
2019-01-18T23:46:40.336Z,99933.39
2019-01-18T23:49:16.444Z,99933.84
2019-01-18T23:51:52.201Z,99933.45
2019-01-18T23:54:24.657Z,99933.45
2019-01-18T23:57:10.696Z,99936.41
2019-01-18T23:59:46.642Z,99922.89
